Pagina principale
METAR-TAF:

METAR-TAF

Aeroporti :

Fiume, Croazia

latitudine: 45-13N, longitudine: 014-35E, altezza: 85 m

Osservazione

Il bollettino è stato emesso 29 minuti fa, alle 11:30 UTC
Vento 2 kt da direzioni variabili
Temperature 11°C
Umidità 50%
Pressione 1011 hPa
Visibilità 10 km o più
Poco nuvoloso ad un'altezza di 5000 ft

METAR: LDRI 191130Z VRB02KT 9999 FEW050 11/01 Q1011

Ora: 12:59 (11:59 UTC)

Previsione

Il bollettino è stato emesso 34 minuti fa, alle 11:25 UTC
Previsione valida dal 19 alle 12 UTC al 20 alle 12 UTC
Vento 2 kt da direzioni variabili
Visibilità 10 km o più
nessuna nube inferiore a 1500 m e nessun cumulonembo

TAF: LDRI 191125Z 1912/2012 VRB02KT CAVOK TX12/1913Z TN04/2005Z

Osservazioni e previsioni meteorologiche di più di 4000 aeroporti (messaggi METAR e TAF).

Le stazioni disponibili sono rappresentate dai dischi gialli e rossi sulla carta.

Puntare il mouse per vedere il nome della stazione.

Clicca sopra per visualizzare le osservazioni e previsioni meteorologiche.

Per cambiare la mappa : fare clic sui pulsanti verdi con una croce nera per ingrandire, il pulsante verde con un trattino per diminuire, o sulla freccia verde per le mappe adiacenti.


METAR-TAF: